This is the latest recevied weather packets stored in our database for station/object N3FAA. If no packets are shown the sender has not sent any weather packets the latest 10 day(s).
| Time | Temp. | Humidity | Pressure | Rain* | Wind** | Luminosity | Snow |
|---|---|---|---|---|---|---|---|
| 1777392759 | 13.89° C | 51% | 1016.2 hPa | 0 mm | - | 560 W/m² | - |
| 1777392456 | 14.44° C | 50% | 1016.1 hPa | 0 mm | - | 514 W/m² | - |
| 1777392151 | 13.89° C | 51% | 1016.2 hPa | 0 mm | - | 471 W/m² | - |
| 1777391847 | 13.33° C | 52% | 1016.2 hPa | 0 mm | - | 436 W/m² | - |
| 1777391541 | 13.89° C | 51% | 1016.1 hPa | 0 mm | - | 421 W/m² | - |
| 1777391238 | 14.44° C | 50% | 1016.1 hPa | 0 mm | - | 393 W/m² | - |
| 1777390935 | 13.89° C | 50% | 1016.3 hPa | 0 mm | - | 350 W/m² | - |
| 1777390625 | 13.89° C | 51% | 1016.4 hPa | 0 mm | - | 306 W/m² | - |
| 1777390322 | 13.33° C | 51% | 1016.2 hPa | 0 mm | - | 303 W/m² | - |
| 1777390018 | 12.78° C | 54% | 1016.1 hPa | 0 mm | - | 313 W/m² | - |
| 1777389715 | 12.22° C | 55% | 1016.2 hPa | 0 mm | - | 299 W/m² | - |
| 1777389411 | 11.67° C | 57% | 1016.1 hPa | 0 mm | - | 284 W/m² | - |
| 1777389109 | 11.11° C | 58% | 1016.2 hPa | 0 mm | - | 274 W/m² | - |
| 1777388807 | 10.56° C | 59% | 1016.2 hPa | 0 mm | - | 248 W/m² | - |
| 1777388503 | 9.44° C | 62% | 1016 hPa | 0 mm | - | 203 W/m² | - |
| 1777388198 | 8.89° C | 65% | 1016.1 hPa | 0 mm | - | 171 W/m² | - |
| 1777387894 | 8.33° C | 66% | 1016.1 hPa | 0 mm | - | 171 W/m² | - |
| 1777387591 | 7.78° C | 66% | 1015.9 hPa | 0 mm | - | 155 W/m² | - |
| 1777387287 | 7.78° C | 66% | 1015.6 hPa | 0 mm | - | 143 W/m² | - |
| 1777386981 | 6.67° C | 70% | 1015.9 hPa | 0 mm | - | 136 W/m² | - |
| 1777386679 | 6.11° C | 71% | 1015.6 hPa | 0 mm | - | 134 W/m² | - |
| 1777386376 | 5.56° C | 72% | 1015.6 hPa | 0 mm | - | 117 W/m² | - |
| 1777386073 | 5° C | 74% | 1015.8 hPa | 0 mm | - | 80 W/m² | - |
| 1777385769 | 4.44° C | 75% | 1015.5 hPa | 0 mm | - | 67 W/m² | - |
| 1777385467 | 3.89° C | 75% | 1015.6 hPa | 0 mm | - | 61 W/m² | - |
* Rain latest hour (hover to see other rain measurements)
** Current wind speed in m/s (hover to see current wind gust speed)